Time;durP1;ratioP1;P1;durP2;ratioP2;P2;SDS_P1;SDS_P2;PMS_P1;PMS_P2;Temp;Humidity;BMP_temperature;BMP_pressure;BME280_temperature;BME280_humidity;BME280_pressure;Samples;Min_cycle;Max_cycle;Signal;HPM_P1;HPM_P2
2021/12/08 00:00:25;;;;;;;29.87;18.47;;;;;;;;;;4999987;28;20220;-73
2021/12/08 00:02:51;;;;;;;27.97;18.00;;;;;;;;;;5011098;28;20225;-73
2021/12/08 00:05:20;;;;;;;27.97;18.90;;;;;;;;;;5000026;28;20236;-73
2021/12/08 00:07:46;;;;;;;34.60;19.27;;;;;;;;;;5012196;28;20707;-73
2021/12/08 00:10:49;;;;;;;31.33;18.83;;;;;;;;;;5004071;28;20256;-72
2021/12/08 00:13:08;;;;;;;31.10;18.33;;;;;;;;;;5011551;28;20710;-73
2021/12/08 00:15:34;;;;;;;30.07;18.07;;;;;;;;;;4994108;28;20223;-72
2021/12/08 00:18:08;;;;;;;29.20;18.20;;;;;;;;;;5010264;28;20225;-73
2021/12/08 00:20:38;;;;;;;26.63;18.00;;;;;;;;;;5012739;28;20252;-73
2021/12/08 00:23:08;;;;;;;29.43;18.80;;;;;;;;;;5010302;28;20236;-73
2021/12/08 00:25:36;;;;;;;27.17;17.83;;;;;;;;;;4993326;28;20248;-73
2021/12/08 00:28:03;;;;;;;28.43;17.73;;;;;;;;;;5003268;28;20697;-73
2021/12/08 00:30:31;;;;;;;26.43;17.13;;;;;;;;;;4978090;28;20229;-73
2021/12/08 00:33:07;;;;;;;29.23;18.70;;;;;;;;;;4988516;28;20219;-73
2021/12/08 00:35:33;;;;;;;25.57;17.97;;;;;;;;;;5011159;28;20229;-73
2021/12/08 00:37:58;;;;;;;29.20;17.87;;;;;;;;;;4992600;28;20228;-73
2021/12/08 00:40:24;;;;;;;28.43;16.73;;;;;;;;;;4993646;28;20224;-74
2021/12/08 00:42:54;;;;;;;31.33;17.63;;;;;;;;;;4993407;28;20232;-73
2021/12/08 00:45:26;;;;;;;27.13;17.73;;;;;;;;;;5009598;28;20216;-74
2021/12/08 00:47:51;;;;;;;25.87;16.93;;;;;;;;;;4987968;28;20223;-73
2021/12/08 00:50:17;;;;;;;31.03;17.10;;;;;;;;;;5009473;28;20587;-73
2021/12/08 00:52:43;;;;;;;28.67;17.87;;;;;;;;;;4993000;28;20258;-75
2021/12/08 00:55:12;;;;;;;29.90;18.07;;;;;;;;;;4992512;28;20224;-74
2021/12/08 00:57:40;;;;;;;25.73;17.03;;;;;;;;;;5009848;28;20233;-73
2021/12/08 01:00:13;;;;;;;26.63;17.57;;;;;;;;;;5009838;28;20228;-73
2021/12/08 01:02:39;;;;;;;28.50;17.93;;;;;;;;;;4977939;28;20312;-73
2021/12/08 01:05:17;;;;;;;24.30;16.83;;;;;;;;;;4998314;28;20367;-73
2021/12/08 01:07:43;;;;;;;24.13;15.90;;;;;;;;;;4978014;28;20254;-73
2021/12/08 01:10:17;;;;;;;23.73;16.33;;;;;;;;;;4984043;28;21178;-73
2021/12/08 01:12:47;;;;;;;24.57;16.37;;;;;;;;;;4967892;28;20229;-74
2021/12/08 01:15:15;;;;;;;26.17;16.73;;;;;;;;;;4993672;28;20575;-72
2021/12/08 01:17:45;;;;;;;28.73;17.37;;;;;;;;;;4998915;28;20231;-72
2021/12/08 01:20:13;;;;;;;22.83;15.37;;;;;;;;;;4982149;28;20228;-73
2021/12/08 01:22:39;;;;;;;22.87;16.33;;;;;;;;;;5000063;28;20220;-75
2021/12/08 01:25:07;;;;;;;23.50;16.30;;;;;;;;;;4993056;28;20224;-75
2021/12/08 01:27:38;;;;;;;19.67;13.80;;;;;;;;;;5002556;28;21330;-74
2021/12/08 01:30:05;;;;;;;25.07;15.20;;;;;;;;;;4976421;28;20256;-74
2021/12/08 01:32:30;;;;;;;21.67;14.63;;;;;;;;;;4993563;28;20224;-74
2021/12/08 01:34:56;;;;;;;23.10;15.43;;;;;;;;;;5009423;28;20225;-73
2021/12/08 01:37:26;;;;;;;22.20;15.60;;;;;;;;;;5009129;28;20220;-74
2021/12/08 01:39:52;;;;;;;24.00;15.47;;;;;;;;;;5001994;28;20367;-72
2021/12/08 01:42:28;;;;;;;21.77;14.70;;;;;;;;;;4991533;28;20228;-74
2021/12/08 01:47:42;;;;;;;24.10;13.97;;;;;;;;;;4995983;28;20308;-74
2021/12/08 01:50:08;;;;;;;18.07;12.80;;;;;;;;;;4982705;28;20216;-74
2021/12/08 01:52:45;;;;;;;20.00;13.17;;;;;;;;;;4997998;28;20216;-74
2021/12/08 01:55:10;;;;;;;16.87;12.03;;;;;;;;;;5009197;28;20305;-74
2021/12/08 01:57:39;;;;;;;15.80;12.43;;;;;;;;;;5009683;28;20649;-74
2021/12/08 02:00:14;;;;;;;18.37;11.33;;;;;;;;;;4991655;28;20220;-73
2021/12/08 02:02:43;;;;;;;16.93;11.23;;;;;;;;;;4977299;28;20760;-75
2021/12/08 02:05:11;;;;;;;15.60;10.90;;;;;;;;;;4991790;28;20229;-74
2021/12/08 02:07:38;;;;;;;16.37;11.33;;;;;;;;;;5008898;28;20632;-74
2021/12/08 02:10:26;;;;;;;17.27;11.70;;;;;;;;;;4981840;28;20705;-74
2021/12/08 02:12:54;;;;;;;15.40;10.07;;;;;;;;;;5009090;28;20232;-74
2021/12/08 02:15:24;;;;;;;13.47;9.63;;;;;;;;;;4992509;28;20275;-73
2021/12/08 02:17:52;;;;;;;13.20;9.93;;;;;;;;;;5009101;28;20229;-73
2021/12/08 02:20:21;;;;;;;15.17;10.07;;;;;;;;;;5008477;28;20223;-73
2021/12/08 02:22:49;;;;;;;17.43;10.20;;;;;;;;;;5009491;28;20228;-73
2021/12/08 02:25:19;;;;;;;12.70;8.90;;;;;;;;;;4991911;28;20577;-73
2021/12/08 02:27:47;;;;;;;13.97;9.53;;;;;;;;;;5002205;28;20263;-73
2021/12/08 02:49:31;;;;;;;11.83;8.90;;;;;;;;;;4994263;28;20226;-73
2021/12/08 02:51:57;;;;;;;11.67;8.50;;;;;;;;;;4988643;28;20323;-73
2021/12/08 02:54:24;;;;;;;12.70;8.67;;;;;;;;;;5011319;28;20312;-73
2021/12/08 02:56:55;;;;;;;12.70;8.50;;;;;;;;;;4996473;28;20239;-72
2021/12/08 02:59:22;;;;;;;11.53;8.60;;;;;;;;;;4995348;28;20250;-73
2021/12/08 03:01:50;;;;;;;10.57;8.80;;;;;;;;;;4994731;28;20314;-73
2021/12/08 03:04:15;;;;;;;12.20;8.30;;;;;;;;;;5000452;28;20977;-74
2021/12/08 03:06:43;;;;;;;10.57;7.87;;;;;;;;;;5011630;28;20312;-72
2021/12/08 03:09:09;;;;;;;10.00;7.20;;;;;;;;;;4994089;28;20231;-73
2021/12/08 03:11:38;;;;;;;10.60;7.70;;;;;;;;;;4995802;28;20261;-72
2021/12/08 03:14:08;;;;;;;12.70;8.20;;;;;;;;;;4995418;28;20224;-73
2021/12/08 03:16:39;;;;;;;12.10;7.27;;;;;;;;;;4994541;28;20687;-75
2021/12/08 03:19:04;;;;;;;8.70;7.50;;;;;;;;;;4995921;28;20904;-74
2021/12/08 03:21:32;;;;;;;10.50;7.30;;;;;;;;;;4995565;28;20311;-74
2021/12/08 03:24:14;;;;;;;11.10;7.07;;;;;;;;;;5027522;28;20219;-73
2021/12/08 03:27:19;;;;;;;10.87;6.43;;;;;;;;;;5005134;28;20609;-73
2021/12/08 03:29:53;;;;;;;9.47;6.63;;;;;;;;;;5014783;28;20237;-74
2021/12/08 03:32:32;;;;;;;10.13;7.07;;;;;;;;;;5006279;28;20254;-74
2021/12/08 03:34:59;;;;;;;9.30;6.47;;;;;;;;;;5016472;28;20842;-74
2021/12/08 03:37:31;;;;;;;9.67;6.37;;;;;;;;;;5015600;28;20224;-73
2021/12/08 03:40:00;;;;;;;9.77;6.43;;;;;;;;;;5015135;28;20225;-73
2021/12/08 03:42:33;;;;;;;8.00;6.37;;;;;;;;;;4986642;28;20624;-73
2021/12/08 03:45:01;;;;;;;7.60;6.10;;;;;;;;;;4995410;28;20227;-74
2021/12/08 03:47:30;;;;;;;8.20;6.10;;;;;;;;;;5027608;28;20282;-73
2021/12/08 03:49:57;;;;;;;8.17;5.40;;;;;;;;;;4994960;28;20661;-74
2021/12/08 03:52:23;;;;;;;7.40;5.57;;;;;;;;;;4994334;28;20229;-69
2021/12/08 03:54:50;;;;;;;7.80;5.83;;;;;;;;;;5010985;28;20221;-75
2021/12/08 03:57:16;;;;;;;7.77;5.60;;;;;;;;;;4977650;28;20228;-76
2021/12/08 03:59:42;;;;;;;9.27;5.83;;;;;;;;;;5010338;28;20233;-73
2021/12/08 04:02:10;;;;;;;7.03;5.33;;;;;;;;;;5010000;28;20224;-74
2021/12/08 04:04:44;;;;;;;8.27;5.87;;;;;;;;;;5026475;28;20228;-75
2021/12/08 04:07:12;;;;;;;8.00;5.93;;;;;;;;;;5001857;28;20286;-73
2021/12/08 04:09:45;;;;;;;7.73;6.23;;;;;;;;;;5008601;28;20225;-72
2021/12/08 04:12:13;;;;;;;7.47;5.83;;;;;;;;;;5010310;28;20263;-74
2021/12/08 04:14:52;;;;;;;7.77;6.33;;;;;;;;;;5010188;28;20228;-75
2021/12/08 04:17:36;;;;;;;9.53;5.67;;;;;;;;;;5010369;28;20224;-73
2021/12/08 04:20:28;;;;;;;8.30;5.67;;;;;;;;;;4993565;28;20330;-74
2021/12/08 04:22:58;;;;;;;10.10;5.17;;;;;;;;;;5007153;28;20229;-74
2021/12/08 04:25:32;;;;;;;8.00;5.33;;;;;;;;;;4994121;28;20225;-74
2021/12/08 04:28:04;;;;;;;9.37;5.53;;;;;;;;;;4983646;28;20215;-73
2021/12/08 04:30:35;;;;;;;9.60;5.57;;;;;;;;;;5003021;28;20906;-74
2021/12/08 04:33:03;;;;;;;6.33;4.90;;;;;;;;;;5011443;28;20228;-73
2021/12/08 04:35:38;;;;;;;7.43;5.90;;;;;;;;;;4989210;28;20239;-72
2021/12/08 04:38:08;;;;;;;9.00;6.13;;;;;;;;;;5006780;28;20231;-73
2021/12/08 04:40:49;;;;;;;7.07;5.97;;;;;;;;;;5008565;28;20232;-73
2021/12/08 04:43:25;;;;;;;8.37;5.73;;;;;;;;;;5000567;28;20235;-73
2021/12/08 05:03:21;;;;;;;9.43;5.63;;;;;;;;;;5010642;28;20259;-73
2021/12/08 05:05:24;;;;;;;7.70;5.40;;;;;;;;;;5002523;28;20566;-74
2021/12/08 05:07:57;;;;;;;6.87;5.93;;;;;;;;;;4996313;28;20235;-73
2021/12/08 05:10:33;;;;;;;10.00;6.07;;;;;;;;;;5009001;28;20247;-73
2021/12/08 05:13:07;;;;;;;9.30;5.47;;;;;;;;;;4988303;28;20227;-72
2021/12/08 05:15:46;;;;;;;8.90;5.87;;;;;;;;;;5007809;28;20224;-73
2021/12/08 05:18:17;;;;;;;10.03;5.67;;;;;;;;;;4993435;28;20215;-72
2021/12/08 05:20:55;;;;;;;6.53;5.30;;;;;;;;;;5011040;28;20227;-73
2021/12/08 05:23:27;;;;;;;7.37;5.90;;;;;;;;;;5009366;28;20228;-73
2021/12/08 05:25:56;;;;;;;6.27;5.63;;;;;;;;;;5009037;28;20224;-72
2021/12/08 05:28:23;;;;;;;6.50;5.57;;;;;;;;;;4988106;28;20735;-72
2021/12/08 05:31:06;;;;;;;6.17;5.17;;;;;;;;;;5021353;28;20229;-73
2021/12/08 05:33:36;;;;;;;6.67;4.83;;;;;;;;;;5006286;28;20313;-72
2021/12/08 05:36:07;;;;;;;7.90;5.73;;;;;;;;;;5007640;28;20697;-71
2021/12/08 05:38:33;;;;;;;7.90;5.50;;;;;;;;;;4982984;28;20221;-74
2021/12/08 05:41:10;;;;;;;6.90;5.50;;;;;;;;;;4999235;28;20308;-72
2021/12/08 05:43:38;;;;;;;8.83;5.20;;;;;;;;;;5010250;28;20227;-72
2021/12/08 05:46:06;;;;;;;6.73;5.53;;;;;;;;;;5007913;28;21189;-73
2021/12/08 05:48:33;;;;;;;6.90;5.73;;;;;;;;;;5010072;28;20216;-72
2021/12/08 05:51:24;;;;;;;7.77;5.87;;;;;;;;;;5009499;28;20272;-72
2021/12/08 05:53:55;;;;;;;6.37;5.30;;;;;;;;;;5011440;28;20225;-73
2021/12/08 05:56:22;;;;;;;6.30;5.23;;;;;;;;;;4992463;28;20610;-72
2021/12/08 05:58:51;;;;;;;7.93;6.20;;;;;;;;;;5009905;28;20221;-70
2021/12/08 06:01:39;;;;;;;7.47;5.53;;;;;;;;;;4976308;28;20768;-72
2021/12/08 06:04:08;;;;;;;6.33;5.63;;;;;;;;;;4992484;28;20601;-71
2021/12/08 06:06:36;;;;;;;7.80;5.63;;;;;;;;;;5009168;28;20223;-74
2021/12/08 06:09:05;;;;;;;8.17;5.40;;;;;;;;;;4998991;28;20224;-72
2021/12/08 06:11:33;;;;;;;6.10;5.50;;;;;;;;;;4992063;28;20236;-71
2021/12/08 06:14:01;;;;;;;5.97;5.30;;;;;;;;;;5007646;28;20304;-73
2021/12/08 06:16:28;;;;;;;7.87;5.40;;;;;;;;;;4997742;28;20228;-72
2021/12/08 06:18:53;;;;;;;6.57;5.57;;;;;;;;;;5001889;28;20591;-72
2021/12/08 06:21:23;;;;;;;7.03;4.93;;;;;;;;;;5000602;28;20231;-72
2021/12/08 06:23:50;;;;;;;6.33;5.57;;;;;;;;;;5010828;28;20216;-73
2021/12/08 06:26:17;;;;;;;6.37;5.53;;;;;;;;;;4992813;28;20228;-71
2021/12/08 06:28:44;;;;;;;6.50;5.67;;;;;;;;;;4989593;28;20223;-72
2021/12/08 06:31:15;;;;;;;12.10;11.00;;;;;;;;;;4996154;28;20776;-74
2021/12/08 06:33:41;;;;;;;6.57;5.63;;;;;;;;;;4979859;28;20614;-73
2021/12/08 06:36:12;;;;;;;9.17;6.13;;;;;;;;;;5001346;28;20225;-73
2021/12/08 06:38:37;;;;;;;7.57;5.90;;;;;;;;;;4977371;28;20576;-73
2021/12/08 06:41:06;;;;;;;8.50;5.20;;;;;;;;;;4991035;28;20228;-74
2021/12/08 06:43:42;;;;;;;7.77;6.57;;;;;;;;;;4992897;28;20283;-73
2021/12/08 06:46:10;;;;;;;7.80;5.97;;;;;;;;;;5000148;28;20909;-73
2021/12/08 06:48:40;;;;;;;8.30;5.63;;;;;;;;;;4981705;28;20229;-73
2021/12/08 06:51:14;;;;;;;8.47;6.40;;;;;;;;;;4993503;28;20228;-73
2021/12/08 06:53:43;;;;;;;7.40;6.07;;;;;;;;;;5010685;28;20774;-72
2021/12/08 06:56:12;;;;;;;7.27;5.77;;;;;;;;;;4992524;28;20245;-73
2021/12/08 06:58:43;;;;;;;8.17;5.77;;;;;;;;;;4982344;28;20589;-73
2021/12/08 07:01:55;;;;;;;10.90;6.43;;;;;;;;;;4991836;28;20220;-72
2021/12/08 07:07:11;;;;;;;8.23;5.47;;;;;;;;;;5011608;28;20226;-72
2021/12/08 07:09:45;;;;;;;8.60;6.13;;;;;;;;;;5010392;28;20244;-74
2021/12/08 07:12:28;;;;;;;5.70;5.17;;;;;;;;;;5011421;28;20229;-73
2021/12/08 07:15:06;;;;;;;9.37;6.13;;;;;;;;;;5011777;28;20224;-73
2021/12/08 07:17:35;;;;;;;8.50;6.43;;;;;;;;;;4990314;28;20239;-74
2021/12/08 07:20:15;;;;;;;8.30;5.90;;;;;;;;;;5001149;28;21435;-73
2021/12/08 07:22:49;;;;;;;6.43;5.83;;;;;;;;;;5013241;28;20236;-73
2021/12/08 07:25:20;;;;;;;9.17;6.10;;;;;;;;;;5027703;28;20319;-73
2021/12/08 07:27:48;;;;;;;7.77;5.97;;;;;;;;;;5004286;28;20670;-73
2021/12/08 07:30:20;;;;;;;11.20;6.43;;;;;;;;;;5004695;28;20220;-73
2021/12/08 07:32:47;;;;;;;8.27;6.53;;;;;;;;;;5012610;28;20794;-73
2021/12/08 07:35:28;;;;;;;7.57;6.57;;;;;;;;;;4978754;28;20224;-73
2021/12/08 07:37:54;;;;;;;8.90;6.47;;;;;;;;;;4993971;28;20224;-73
2021/12/08 07:40:26;;;;;;;8.43;6.60;;;;;;;;;;4987852;28;20267;-72
2021/12/08 07:43:02;;;;;;;8.73;7.73;;;;;;;;;;4994624;28;20225;-73
2021/12/08 07:45:39;;;;;;;8.03;6.37;;;;;;;;;;5011101;28;20689;-73
2021/12/08 07:48:07;;;;;;;9.83;6.63;;;;;;;;;;4994689;28;20642;-73
2021/12/08 07:50:38;;;;;;;11.50;7.13;;;;;;;;;;5010814;28;20229;-73
2021/12/08 07:53:04;;;;;;;9.37;6.80;;;;;;;;;;5010615;28;20217;-72
2021/12/08 07:55:42;;;;;;;8.80;7.13;;;;;;;;;;5011612;28;20690;-72
2021/12/08 07:58:08;;;;;;;10.33;7.37;;;;;;;;;;5009892;28;20225;-72
2021/12/08 08:00:46;;;;;;;12.50;8.20;;;;;;;;;;5010901;28;20225;-72
2021/12/08 08:03:15;;;;;;;12.03;7.83;;;;;;;;;;5011491;28;20220;-72
2021/12/08 08:05:40;;;;;;;13.77;9.23;;;;;;;;;;5011599;28;20223;-73
2021/12/08 08:08:12;;;;;;;13.37;8.40;;;;;;;;;;5012210;28;20258;-71
2021/12/08 08:10:46;;;;;;;10.03;7.37;;;;;;;;;;5011082;28;20232;-73
2021/12/08 08:13:18;;;;;;;12.93;9.30;;;;;;;;;;4978422;28;20758;-72
2021/12/08 08:15:47;;;;;;;12.97;9.17;;;;;;;;;;5003742;28;20254;-73
2021/12/08 08:18:20;;;;;;;11.23;8.70;;;;;;;;;;5011664;28;20316;-72
2021/12/08 08:20:49;;;;;;;13.20;9.77;;;;;;;;;;5010734;28;21204;-73
2021/12/08 08:23:21;;;;;;;10.53;8.13;;;;;;;;;;4982440;28;20224;-73
2021/12/08 08:25:49;;;;;;;11.50;8.57;;;;;;;;;;4986181;28;20228;-73
2021/12/08 08:28:17;;;;;;;11.23;8.23;;;;;;;;;;4977496;28;20235;-73
2021/12/08 08:30:53;;;;;;;12.97;8.27;;;;;;;;;;4993928;28;20611;-73
2021/12/08 08:33:23;;;;;;;10.57;7.77;;;;;;;;;;5009368;28;20239;-72
2021/12/08 08:35:53;;;;;;;11.27;7.67;;;;;;;;;;5011065;28;20896;-73
2021/12/08 08:38:23;;;;;;;12.30;8.60;;;;;;;;;;5011463;28;20231;-73
2021/12/08 08:40:52;;;;;;;10.80;8.43;;;;;;;;;;5011494;28;20335;-73
2021/12/08 08:43:20;;;;;;;13.60;9.67;;;;;;;;;;5009949;28;20307;-73
2021/12/08 08:45:55;;;;;;;12.33;8.77;;;;;;;;;;4984804;28;20233;-73
2021/12/08 08:48:30;;;;;;;11.23;8.70;;;;;;;;;;4999502;28;20228;-73
2021/12/08 08:51:12;;;;;;;10.37;7.77;;;;;;;;;;5003782;28;20235;-72
2021/12/08 08:53:46;;;;;;;12.00;8.60;;;;;;;;;;5007994;28;20912;-72
2021/12/08 08:56:31;;;;;;;11.90;8.07;;;;;;;;;;5005743;28;20220;-73
2021/12/08 08:59:02;;;;;;;12.07;7.87;;;;;;;;;;4992012;28;20715;-74
2021/12/08 09:01:34;;;;;;;10.33;7.77;;;;;;;;;;4983322;28;21328;-73
2021/12/08 09:04:18;;;;;;;14.03;8.93;;;;;;;;;;5007765;28;20225;-73
2021/12/08 09:06:46;;;;;;;12.10;8.33;;;;;;;;;;4991371;28;20256;-73
2021/12/08 09:09:15;;;;;;;11.17;8.87;;;;;;;;;;4990146;28;21296;-74
2021/12/08 09:11:54;;;;;;;13.80;8.90;;;;;;;;;;5006176;28;20250;-73
2021/12/08 09:14:26;;;;;;;9.00;7.90;;;;;;;;;;4998071;28;20294;-73
2021/12/08 09:17:14;;;;;;;10.63;8.00;;;;;;;;;;4975219;28;20223;-73
2021/12/08 09:20:16;;;;;;;11.27;8.40;;;;;;;;;;4982121;28;20243;-73
2021/12/08 09:22:55;;;;;;;11.07;8.33;;;;;;;;;;4994836;28;20224;-73
2021/12/08 09:25:49;;;;;;;12.13;7.30;;;;;;;;;;4994782;28;20219;-74
2021/12/08 09:28:22;;;;;;;11.47;8.17;;;;;;;;;;5009806;28;20286;-74
2021/12/08 09:30:58;;;;;;;10.27;8.20;;;;;;;;;;4995091;28;20257;-73
2021/12/08 09:33:37;;;;;;;11.47;8.00;;;;;;;;;;5011384;28;20244;-73
2021/12/08 09:36:07;;;;;;;10.50;7.97;;;;;;;;;;4994174;28;20252;-74
2021/12/08 09:38:57;;;;;;;11.70;7.67;;;;;;;;;;4993628;28;20232;-73
2021/12/08 09:41:41;;;;;;;11.30;8.33;;;;;;;;;;4983201;28;20717;-73
2021/12/08 09:44:13;;;;;;;11.27;7.70;;;;;;;;;;4987395;28;20224;-73
2021/12/08 09:46:41;;;;;;;9.50;7.80;;;;;;;;;;5001745;28;20229;-74
2021/12/08 09:49:07;;;;;;;9.33;7.47;;;;;;;;;;4986376;28;20231;-74
2021/12/08 09:51:35;;;;;;;13.83;7.70;;;;;;;;;;4993832;28;20288;-74
2021/12/08 09:54:03;;;;;;;9.27;7.20;;;;;;;;;;4994004;28;21192;-74
2021/12/08 09:56:36;;;;;;;10.97;7.90;;;;;;;;;;5009305;28;20243;-74
2021/12/08 09:59:04;;;;;;;11.83;7.83;;;;;;;;;;4993747;28;20651;-74
2021/12/08 10:01:32;;;;;;;10.20;7.50;;;;;;;;;;4994046;28;20327;-74
2021/12/08 10:04:00;;;;;;;9.30;7.63;;;;;;;;;;5030225;28;20228;-74
2021/12/08 10:06:26;;;;;;;8.90;7.10;;;;;;;;;;4980936;28;20244;-74
2021/12/08 10:08:57;;;;;;;10.33;7.53;;;;;;;;;;4991940;28;20267;-73
2021/12/08 10:11:22;;;;;;;11.93;7.90;;;;;;;;;;5003181;28;20649;-74
2021/12/08 10:13:48;;;;;;;9.33;7.40;;;;;;;;;;5006381;28;20229;-73
2021/12/08 10:16:16;;;;;;;9.60;7.67;;;;;;;;;;4997714;28;20228;-73
2021/12/08 10:18:44;;;;;;;10.00;7.33;;;;;;;;;;5003741;28;20612;-74
2021/12/08 10:21:10;;;;;;;10.03;7.27;;;;;;;;;;5013882;28;20235;-74
2021/12/08 10:23:37;;;;;;;9.60;7.33;;;;;;;;;;4998395;28;20227;-74
2021/12/08 10:26:13;;;;;;;9.97;7.07;;;;;;;;;;4997725;28;20239;-75
2021/12/08 10:28:56;;;;;;;10.53;6.80;;;;;;;;;;4999509;28;20247;-74
2021/12/08 10:31:30;;;;;;;11.40;8.17;;;;;;;;;;5013653;28;20644;-73
2021/12/08 10:34:14;;;;;;;11.50;8.43;;;;;;;;;;5029560;28;20271;-74
2021/12/08 10:36:57;;;;;;;29.43;25.93;;;;;;;;;;4984623;28;20307;-74
2021/12/08 10:39:36;;;;;;;13.70;11.60;;;;;;;;;;4996173;28;20220;-71
2021/12/08 10:42:11;;;;;;;21.17;18.77;;;;;;;;;;5012501;28;20232;-74
2021/12/08 10:47:20;;;;;;;9.33;7.40;;;;;;;;;;5015380;28;20255;-74
2021/12/08 10:55:06;;;;;;;9.20;6.87;;;;;;;;;;5000507;28;20317;-74
2021/12/08 10:57:38;;;;;;;11.60;7.17;;;;;;;;;;5006329;28;20375;-74
2021/12/08 11:00:09;;;;;;;8.60;6.40;;;;;;;;;;5013933;28;20303;-74
2021/12/08 11:02:44;;;;;;;9.10;7.00;;;;;;;;;;4999529;28;20306;-75
2021/12/08 11:05:24;;;;;;;7.37;6.20;;;;;;;;;;5013388;28;20224;-73
2021/12/08 11:08:13;;;;;;;8.40;6.63;;;;;;;;;;5013559;28;20239;-73
2021/12/08 11:10:52;;;;;;;10.10;6.63;;;;;;;;;;5010647;28;20821;-74
2021/12/08 11:13:24;;;;;;;10.20;7.20;;;;;;;;;;5008432;28;20220;-74
2021/12/08 11:16:15;;;;;;;11.50;6.67;;;;;;;;;;5009630;28;20216;-73
2021/12/08 11:18:49;;;;;;;8.30;6.50;;;;;;;;;;4969820;28;20220;-74
2021/12/08 11:21:27;;;;;;;10.77;6.80;;;;;;;;;;4982629;28;20650;-73
2021/12/08 11:23:59;;;;;;;7.90;6.53;;;;;;;;;;4990707;28;20229;-74
2021/12/08 11:26:36;;;;;;;9.33;6.70;;;;;;;;;;4989178;28;20282;-73
2021/12/08 11:29:14;;;;;;;7.30;6.40;;;;;;;;;;4996932;28;20246;-74
2021/12/08 11:31:58;;;;;;;8.23;6.40;;;;;;;;;;4994844;28;20244;-74
2021/12/08 11:34:27;;;;;;;9.23;6.30;;;;;;;;;;4967322;28;20225;-74
2021/12/08 11:36:59;;;;;;;6.67;5.97;;;;;;;;;;5006920;28;20243;-74
2021/12/08 11:39:31;;;;;;;10.20;6.07;;;;;;;;;;5007857;28;20248;-74
2021/12/08 11:42:08;;;;;;;8.30;6.10;;;;;;;;;;5008070;28;20228;-73
2021/12/08 11:44:42;;;;;;;7.90;6.13;;;;;;;;;;5017172;28;20231;-74
2021/12/08 11:47:15;;;;;;;8.27;6.53;;;;;;;;;;5009097;28;20228;-74
2021/12/08 11:49:53;;;;;;;9.33;6.40;;;;;;;;;;4992651;28;20223;-74
2021/12/08 11:52:23;;;;;;;7.63;6.10;;;;;;;;;;4979374;28;20232;-74
2021/12/08 11:54:50;;;;;;;8.40;6.20;;;;;;;;;;5011395;28;20624;-74
2021/12/08 11:57:24;;;;;;;8.53;5.80;;;;;;;;;;5011082;28;20350;-74
2021/12/08 12:00:11;;;;;;;8.50;6.30;;;;;;;;;;5011095;28;20701;-74
2021/12/08 12:03:00;;;;;;;8.20;5.80;;;;;;;;;;5011455;28;20228;-74
2021/12/08 12:05:32;;;;;;;8.80;6.30;;;;;;;;;;4996165;28;20613;-74
2021/12/08 12:08:01;;;;;;;8.97;6.27;;;;;;;;;;5012483;28;20224;-74
2021/12/08 12:10:31;;;;;;;8.37;6.53;;;;;;;;;;5010090;28;20228;-74
2021/12/08 12:12:57;;;;;;;9.07;6.10;;;;;;;;;;4994814;28;20228;-73
2021/12/08 12:15:25;;;;;;;8.57;6.07;;;;;;;;;;4976346;28;20225;-74
2021/12/08 12:17:54;;;;;;;9.50;6.50;;;;;;;;;;5010648;28;20231;-74
2021/12/08 12:20:24;;;;;;;9.57;6.73;;;;;;;;;;4994641;28;20225;-74
2021/12/08 12:23:07;;;;;;;9.17;6.47;;;;;;;;;;5011077;28;20325;-74
2021/12/08 12:26:09;;;;;;;9.03;6.17;;;;;;;;;;5009934;28;20294;-74
2021/12/08 12:29:13;;;;;;;9.70;6.27;;;;;;;;;;5002638;28;20278;-75
2021/12/08 12:31:48;;;;;;;8.53;6.20;;;;;;;;;;5008815;28;20260;-72
2021/12/08 12:34:53;;;;;;;9.67;6.73;;;;;;;;;;5007484;28;20220;-71
2021/12/08 12:37:29;;;;;;;9.10;6.47;;;;;;;;;;5010392;28;20339;-72
2021/12/08 12:39:56;;;;;;;8.87;6.83;;;;;;;;;;5011836;28;20225;-73
2021/12/08 12:42:43;;;;;;;8.17;6.53;;;;;;;;;;5009579;28;20225;-73
2021/12/08 12:45:12;;;;;;;10.83;6.03;;;;;;;;;;5005201;28;20672;-73
2021/12/08 12:47:43;;;;;;;9.93;6.33;;;;;;;;;;5007731;28;20696;-73
2021/12/08 12:50:15;;;;;;;7.87;6.00;;;;;;;;;;5006722;28;20227;-73
2021/12/08 12:52:50;;;;;;;7.57;6.27;;;;;;;;;;5008893;28;20227;-74
2021/12/08 12:55:29;;;;;;;8.03;5.63;;;;;;;;;;5006802;28;20295;-74
2021/12/08 12:58:01;;;;;;;9.27;6.40;;;;;;;;;;4995154;28;20231;-74
2021/12/08 13:00:32;;;;;;;8.77;6.40;;;;;;;;;;5006164;28;20221;-73
2021/12/08 13:03:01;;;;;;;7.57;5.90;;;;;;;;;;4976080;28;20221;-74
2021/12/08 13:05:50;;;;;;;8.47;6.20;;;;;;;;;;5005643;28;20311;-74
2021/12/08 13:08:32;;;;;;;6.47;5.70;;;;;;;;;;4998863;28;20244;-74
2021/12/08 13:11:10;;;;;;;8.10;6.10;;;;;;;;;;5007965;28;20225;-74
2021/12/08 13:13:46;;;;;;;9.80;6.63;;;;;;;;;;4968159;28;20228;-74
2021/12/08 13:16:21;;;;;;;7.50;6.53;;;;;;;;;;4991452;28;20224;-74
2021/12/08 13:18:56;;;;;;;8.53;6.30;;;;;;;;;;4999696;28;20249;-74
2021/12/08 13:21:44;;;;;;;11.03;6.43;;;;;;;;;;4995147;28;20247;-74
2021/12/08 13:24:35;;;;;;;12.40;7.20;;;;;;;;;;4992859;28;20675;-76
2021/12/08 13:27:17;;;;;;;9.03;6.63;;;;;;;;;;5008673;28;20223;-74
2021/12/08 13:29:46;;;;;;;9.23;6.10;;;;;;;;;;4994442;28;20299;-73
2021/12/08 13:32:13;;;;;;;9.80;7.03;;;;;;;;;;5008563;28;20601;-73
2021/12/08 13:34:46;;;;;;;11.80;7.30;;;;;;;;;;4994190;28;20223;-73
2021/12/08 13:37:23;;;;;;;10.57;7.10;;;;;;;;;;4980664;28;20223;-73
2021/12/08 13:39:52;;;;;;;10.83;7.37;;;;;;;;;;4999845;28;20232;-72
2021/12/08 13:42:26;;;;;;;8.77;6.60;;;;;;;;;;4976529;28;20298;-73
2021/12/08 13:45:01;;;;;;;10.83;7.00;;;;;;;;;;4998633;28;20220;-73
2021/12/08 13:47:35;;;;;;;9.10;6.83;;;;;;;;;;5009288;28;20220;-75
2021/12/08 13:50:05;;;;;;;9.87;6.43;;;;;;;;;;5007343;28;20240;-73
2021/12/08 13:52:35;;;;;;;10.83;7.50;;;;;;;;;;5008006;28;20304;-73
2021/12/08 13:55:09;;;;;;;10.60;7.27;;;;;;;;;;4992853;28;20224;-73
2021/12/08 13:57:38;;;;;;;10.03;7.83;;;;;;;;;;5024875;28;20245;-73
2021/12/08 14:00:33;;;;;;;11.33;7.33;;;;;;;;;;4992405;28;20240;-74
2021/12/08 14:03:01;;;;;;;9.97;7.50;;;;;;;;;;5006785;28;20229;-73
2021/12/08 14:05:41;;;;;;;10.30;7.83;;;;;;;;;;5007760;28;20229;-72
2021/12/08 14:08:18;;;;;;;10.17;7.53;;;;;;;;;;5001834;28;20721;-73
2021/12/08 14:10:48;;;;;;;9.77;7.57;;;;;;;;;;5008819;28;20247;-74
2021/12/08 14:13:19;;;;;;;9.27;7.97;;;;;;;;;;4996684;28;20620;-73
2021/12/08 14:15:47;;;;;;;11.47;7.83;;;;;;;;;;4993886;28;20220;-73
2021/12/08 14:18:33;;;;;;;11.20;8.17;;;;;;;;;;5007762;28;20284;-72
2021/12/08 14:21:20;;;;;;;12.17;8.33;;;;;;;;;;5009336;28;20234;-74
2021/12/08 14:23:54;;;;;;;10.83;8.20;;;;;;;;;;5010881;28;20307;-73
2021/12/08 14:26:23;;;;;;;12.93;8.20;;;;;;;;;;5005265;28;20643;-74
2021/12/08 14:28:52;;;;;;;11.63;8.20;;;;;;;;;;5008645;28;21247;-74
2021/12/08 14:31:38;;;;;;;11.40;8.77;;;;;;;;;;5018557;28;20232;-73
2021/12/08 14:34:08;;;;;;;11.47;8.73;;;;;;;;;;5001674;28;20228;-72
2021/12/08 14:36:52;;;;;;;14.27;8.97;;;;;;;;;;5014014;28;20286;-75
2021/12/08 14:39:35;;;;;;;15.73;9.10;;;;;;;;;;5002411;28;20224;-74
2021/12/08 14:42:21;;;;;;;12.57;8.87;;;;;;;;;;5024428;28;20314;-71
2021/12/08 14:44:55;;;;;;;12.07;8.60;;;;;;;;;;4987612;28;20228;-74
2021/12/08 14:47:32;;;;;;;13.30;9.17;;;;;;;;;;4994226;28;20307;-74
2021/12/08 14:50:07;;;;;;;13.77;9.13;;;;;;;;;;4982440;28;20476;-74
2021/12/08 14:52:34;;;;;;;11.83;9.83;;;;;;;;;;4989251;28;20307;-72
2021/12/08 14:55:00;;;;;;;9.80;8.33;;;;;;;;;;5012168;28;20228;-74
2021/12/08 14:57:30;;;;;;;13.00;8.87;;;;;;;;;;4995639;28;21246;-73
2021/12/08 15:00:10;;;;;;;13.00;9.67;;;;;;;;;;4987495;28;21546;-73
2021/12/08 15:02:40;;;;;;;13.03;9.17;;;;;;;;;;4989107;28;20273;-73
2021/12/08 15:05:18;;;;;;;16.80;10.27;;;;;;;;;;5012103;28;20281;-74
2021/12/08 15:07:44;;;;;;;13.30;9.23;;;;;;;;;;4996310;28;20247;-73
2021/12/08 15:10:17;;;;;;;15.20;11.00;;;;;;;;;;5011242;28;20215;-72
2021/12/08 15:12:49;;;;;;;12.90;10.10;;;;;;;;;;4989833;28;20259;-72
2021/12/08 15:15:17;;;;;;;13.63;9.43;;;;;;;;;;4989083;28;20224;-72
2021/12/08 15:17:46;;;;;;;14.57;10.43;;;;;;;;;;5012981;28;20221;-72
2021/12/08 15:20:15;;;;;;;12.70;10.00;;;;;;;;;;4995860;28;21129;-73
2021/12/08 15:22:45;;;;;;;15.27;10.47;;;;;;;;;;5012603;28;20282;-73
2021/12/08 15:25:12;;;;;;;13.73;10.70;;;;;;;;;;4984620;28;20269;-73
2021/12/08 15:27:42;;;;;;;15.67;12.00;;;;;;;;;;5011134;28;20885;-73
2021/12/08 15:30:12;;;;;;;17.53;11.17;;;;;;;;;;4999874;28;20238;-74
2021/12/08 15:32:40;;;;;;;18.43;11.07;;;;;;;;;;5008917;28;21020;-73
2021/12/08 15:35:10;;;;;;;14.80;11.57;;;;;;;;;;5009531;28;20223;-72
2021/12/08 15:37:39;;;;;;;14.63;10.80;;;;;;;;;;4992614;28;20274;-74
2021/12/08 15:40:07;;;;;;;16.20;11.73;;;;;;;;;;4979387;28;20228;-73
2021/12/08 15:42:33;;;;;;;15.00;11.20;;;;;;;;;;4991917;28;20223;-75
2021/12/08 15:45:06;;;;;;;17.53;11.23;;;;;;;;;;4992196;28;20262;-74
2021/12/08 15:47:36;;;;;;;19.73;11.33;;;;;;;;;;4997785;28;20228;-73
2021/12/08 15:50:25;;;;;;;17.47;11.80;;;;;;;;;;5009923;28;20299;-75
2021/12/08 15:52:58;;;;;;;18.80;11.80;;;;;;;;;;4993284;28;20231;-75
2021/12/08 15:55:32;;;;;;;17.33;12.03;;;;;;;;;;4991331;28;20236;-75